createdAt,value
2018-09-02T00:00:17.042Z,68.2
2018-09-02T00:01:17.089Z,68.1
2018-09-02T00:02:16.373Z,67.4
2018-09-02T00:03:16.624Z,67.8
2018-09-02T00:04:16.887Z,67.5
2018-09-02T00:05:17.440Z,67.6
2018-09-02T00:06:16.720Z,67.3
2018-09-02T00:07:16.990Z,67.5
2018-09-02T00:08:16.271Z,68.5
2018-09-02T00:09:16.540Z,67.6
2018-09-02T00:10:16.812Z,68.0
2018-09-02T00:11:16.870Z,68.0
2018-09-02T00:12:17.140Z,68.1
2018-09-02T00:13:16.410Z,67.1
2018-09-02T00:14:16.684Z,67.7
2018-09-02T00:15:16.953Z,67.7
2018-09-02T00:16:17.220Z,67.7
2018-09-02T00:17:16.493Z,67.5
2018-09-02T00:18:16.761Z,67.7
2018-09-02T00:19:17.032Z,67.4
2018-09-02T00:20:16.306Z,67.8
2018-09-02T00:21:16.353Z,67.2
2018-09-02T00:22:16.633Z,67.7
2018-09-02T00:23:16.897Z,68.2
2018-09-02T00:24:17.159Z,68.3
2018-09-02T00:25:16.433Z,68.3
2018-09-02T00:26:16.987Z,68.2
2018-09-02T00:27:17.250Z,68.5
2018-09-02T00:28:16.538Z,68.6
2018-09-02T00:29:16.803Z,68.2
2018-09-02T00:30:17.134Z,68.2
2018-09-02T00:31:17.138Z,69.0
2018-09-02T00:32:16.402Z,68.3
2018-09-02T00:33:16.922Z,68.6
2018-09-02T00:34:16.272Z,69.2
2018-09-02T00:35:16.557Z,69.1
2018-09-02T00:36:16.830Z,69.1
2018-09-02T00:37:17.104Z,69.6
2018-09-02T00:38:16.380Z,69.6
2018-09-02T00:39:16.644Z,70.3
2018-09-02T00:40:16.926Z,70.2
2018-09-02T00:41:16.966Z,70.4
2018-09-02T00:42:17.243Z,69.9
2018-09-02T00:43:16.506Z,70.4
2018-09-02T00:44:16.776Z,70.5
2018-09-02T00:45:17.062Z,70.7
2018-09-02T00:46:16.338Z,70.4
2018-09-02T00:47:16.609Z,70.1
2018-09-02T00:48:16.879Z,70.3
2018-09-02T00:49:17.152Z,70.8
2018-09-02T00:50:16.459Z,70.9
2018-09-02T00:51:16.601Z,70.8
2018-09-02T00:52:16.881Z,71.0
2018-09-02T00:53:17.425Z,71.0
2018-09-02T00:54:16.704Z,71.8
2018-09-02T00:55:16.973Z,71.3
2018-09-02T00:56:17.245Z,71.3
2018-09-02T00:57:16.530Z,71.7
2018-09-02T00:58:16.777Z,71.7
2018-09-02T00:59:17.060Z,71.4
2018-09-02T01:00:16.331Z,71.4
2018-09-02T01:01:16.392Z,71.7
2018-09-02T01:02:16.658Z,71.5
2018-09-02T01:03:16.928Z,71.4
2018-09-02T01:04:17.213Z,72.3
2018-09-02T01:05:16.509Z,71.5
2018-09-02T01:06:16.790Z,71.4
2018-09-02T01:07:17.050Z,71.8
2018-09-02T01:08:16.325Z,72.2
2018-09-02T01:09:16.613Z,72.2
2018-09-02T01:10:16.890Z,72.4
2018-09-02T01:11:16.939Z,71.7
2018-09-02T01:12:17.214Z,72.4
2018-09-02T01:13:16.482Z,72.2
2018-09-02T01:14:16.748Z,72.2
2018-09-02T01:15:17.014Z,72.0
2018-09-02T01:16:16.283Z,72.0
2018-09-02T01:17:16.567Z,72.6
2018-09-02T01:18:16.834Z,72.5
2018-09-02T01:19:17.106Z,72.7
2018-09-02T01:20:16.407Z,72.7
2018-09-02T01:21:16.420Z,72.6
2018-09-02T01:22:16.700Z,72.9
2018-09-02T01:23:16.972Z,73.1
2018-09-02T01:24:17.255Z,72.8
2018-09-02T01:25:16.531Z,73.0
2018-09-02T01:26:16.812Z,72.8
2018-09-02T01:27:17.085Z,73.0
2018-09-02T01:28:16.351Z,73.0
2018-09-02T01:29:16.626Z,73.2
2018-09-02T01:30:16.878Z,73.4
2018-09-02T01:31:16.941Z,73.0
2018-09-02T01:32:17.204Z,73.2
2018-09-02T01:33:16.466Z,73.5
2018-09-02T01:34:16.737Z,73.2
2018-09-02T01:35:17.020Z,73.5
2018-09-02T01:36:16.296Z,73.3
2018-09-02T01:37:16.574Z,73.3
2018-09-02T01:38:16.847Z,73.5
2018-09-02T01:39:17.119Z,73.6
2018-09-02T01:40:16.407Z,73.4
2018-09-02T01:41:16.433Z,73.3
2018-09-02T01:42:16.701Z,73.3
2018-09-02T01:43:16.972Z,73.7
2018-09-02T01:44:17.251Z,73.9
2018-09-02T01:45:16.527Z,74.0
2018-09-02T01:46:16.794Z,73.7
2018-09-02T01:47:17.055Z,73.8
2018-09-02T01:48:16.327Z,74.1
2018-09-02T01:49:16.591Z,74.2
2018-09-02T01:50:16.877Z,74.5
2018-09-02T01:51:16.921Z,74.4
2018-09-02T01:52:17.188Z,74.7
2018-09-02T01:53:16.451Z,74.4
2018-09-02T01:54:16.713Z,74.9
2018-09-02T01:55:17.525Z,75.3
2018-09-02T01:56:16.804Z,75.2
2018-09-02T01:57:17.077Z,75.0
2018-09-02T01:58:16.348Z,75.0
2018-09-02T01:59:16.612Z,75.7
2018-09-02T02:00:16.899Z,75.4
2018-09-02T02:01:16.944Z,75.3
2018-09-02T02:02:17.213Z,75.9
2018-09-02T02:03:16.475Z,76.1
2018-09-02T02:04:16.749Z,76.4
2018-09-02T02:05:17.054Z,75.9
2018-09-02T02:06:16.326Z,75.9
2018-09-02T02:07:16.594Z,76.8
2018-09-02T02:08:16.867Z,76.7
2018-09-02T02:09:17.146Z,77.0
2018-09-02T02:10:16.413Z,77.3
2018-09-02T02:11:16.468Z,77.4
2018-09-02T02:12:16.745Z,77.9
2018-09-02T02:13:17.021Z,77.2
2018-09-02T02:14:16.308Z,77.8
2018-09-02T02:15:16.587Z,77.5
2018-09-02T02:16:16.860Z,78.0
2018-09-02T02:17:17.130Z,77.4
2018-09-02T02:18:16.407Z,77.3
2018-09-02T02:19:16.667Z,78.0
2018-09-02T02:20:16.939Z,78.3
2018-09-02T02:21:16.993Z,78.5
2018-09-02T02:22:16.264Z,78.4
2018-09-02T02:23:16.526Z,78.2
2018-09-02T02:24:16.787Z,78.1
2018-09-02T02:25:17.060Z,78.4
2018-09-02T02:26:16.322Z,79.5
2018-09-02T02:27:16.613Z,78.6
2018-09-02T02:28:16.877Z,78.7
2018-09-02T02:29:17.143Z,78.6
2018-09-02T02:30:16.434Z,78.5
2018-09-02T02:31:16.475Z,79.2
2018-09-02T02:32:16.747Z,79.0
2018-09-02T02:33:17.020Z,79.4
2018-09-02T02:34:16.290Z,78.9
2018-09-02T02:35:16.565Z,78.6
2018-09-02T02:36:16.833Z,79.0
2018-09-02T02:37:18.783Z,78.3
2018-09-02T02:38:17.052Z,78.6
2018-09-02T02:39:16.331Z,78.7
2018-09-02T02:40:16.612Z,78.9
2018-09-02T02:41:16.662Z,79.2
2018-09-02T02:42:16.958Z,79.3
2018-09-02T02:43:17.229Z,79.3
2018-09-02T02:44:16.491Z,79.4
2018-09-02T02:45:16.756Z,79.6
2018-09-02T02:46:17.025Z,79.6
2018-09-02T02:47:16.293Z,78.5
2018-09-02T02:48:16.574Z,78.7
2018-09-02T02:49:16.857Z,78.9
2018-09-02T02:50:17.137Z,79.5
2018-09-02T02:51:17.154Z,79.3
2018-09-02T02:52:16.428Z,79.7
2018-09-02T02:53:16.716Z,79.6
2018-09-02T02:54:16.990Z,79.8
2018-09-02T02:55:17.267Z,79.8
2018-09-02T02:56:16.552Z,79.2
2018-09-02T02:57:16.813Z,79.6
2018-09-02T02:58:17.075Z,79.1
2018-09-02T02:59:16.349Z,79.2
2018-09-02T03:00:16.635Z,79.5
2018-09-02T03:01:16.675Z,79.4
2018-09-02T03:02:16.961Z,79.5
2018-09-02T03:03:17.252Z,79.5
2018-09-02T03:04:16.515Z,79.6
2018-09-02T03:05:16.779Z,79.3
2018-09-02T03:06:17.046Z,79.5
2018-09-02T03:07:16.319Z,79.4
2018-09-02T03:08:16.617Z,79.5
2018-09-02T03:09:16.897Z,79.4
2018-09-02T03:10:17.168Z,79.5
2018-09-02T03:11:17.239Z,80.7
2018-09-02T03:12:16.507Z,80.5
2018-09-02T03:13:16.771Z,80.2
2018-09-02T03:14:17.042Z,80.3
2018-09-02T03:15:16.312Z,79.7
2018-09-02T03:16:16.579Z,79.6
2018-09-02T03:17:16.852Z,79.7
2018-09-02T03:18:17.115Z,80.0
2018-09-02T03:19:16.388Z,80.5
2018-09-02T03:20:16.661Z,80.0
2018-09-02T03:21:16.712Z,80.0
2018-09-02T03:22:16.976Z,80.1
2018-09-02T03:23:17.246Z,80.1
2018-09-02T03:24:16.517Z,80.2
2018-09-02T03:25:16.793Z,80.2
2018-09-02T03:26:17.066Z,80.3
2018-09-02T03:27:16.344Z,80.5
2018-09-02T03:28:16.614Z,80.7
2018-09-02T03:29:16.882Z,80.6
2018-09-02T03:30:17.168Z,80.3
2018-09-02T03:31:17.222Z,81.0
2018-09-02T03:32:16.494Z,80.4
2018-09-02T03:33:16.757Z,79.8
2018-09-02T03:34:17.010Z,80.1
2018-09-02T03:35:16.278Z,80.3
2018-09-02T03:36:16.554Z,80.4
2018-09-02T03:37:16.824Z,80.6
2018-09-02T03:38:17.101Z,80.4
2018-09-02T03:39:16.367Z,80.5
2018-09-02T03:40:16.636Z,80.4
2018-09-02T03:41:16.699Z,80.9
2018-09-02T03:42:16.976Z,80.6
2018-09-02T03:43:17.267Z,80.8
2018-09-02T03:44:16.543Z,80.7
2018-09-02T03:45:16.813Z,81.2
2018-09-02T03:46:17.081Z,80.8
2018-09-02T03:47:16.344Z,81.2
2018-09-02T03:48:16.610Z,80.9
2018-09-02T03:49:16.886Z,80.8
2018-09-02T03:50:17.162Z,81.5
2018-09-02T03:51:17.204Z,81.7
2018-09-02T03:52:16.481Z,81.8
2018-09-02T03:53:16.747Z,81.8
2018-09-02T03:54:17.029Z,81.8
2018-09-02T03:55:16.322Z,81.4
2018-09-02T03:56:16.597Z,81.7
2018-09-02T03:57:16.863Z,82.2
2018-09-02T03:58:17.139Z,82.2
2018-09-02T03:59:16.421Z,82.8
2018-09-02T04:00:16.695Z,82.8
2018-09-02T04:01:16.753Z,83.2
2018-09-02T04:02:17.020Z,82.6
2018-09-02T04:03:16.291Z,83.2
2018-09-02T04:04:16.570Z,82.7
2018-09-02T04:05:16.839Z,82.7
2018-09-02T04:06:17.120Z,83.0
2018-09-02T04:07:16.381Z,82.7
2018-09-02T04:08:16.649Z,82.8
2018-09-02T04:09:16.915Z,83.6
2018-09-02T04:10:17.197Z,82.9
2018-09-02T04:11:17.334Z,83.2
2018-09-02T04:12:16.640Z,83.3
2018-09-02T04:13:16.914Z,83.6
2018-09-02T04:14:17.181Z,83.2
2018-09-02T04:15:16.482Z,83.8
2018-09-02T04:16:16.749Z,83.2
2018-09-02T04:17:17.016Z,83.4
2018-09-02T04:18:16.291Z,83.3
2018-09-02T04:19:16.558Z,83.9
2018-09-02T04:20:16.844Z,84.0
2018-09-02T04:21:16.879Z,83.2
2018-09-02T04:22:17.166Z,83.9
2018-09-02T04:23:16.436Z,84.0
2018-09-02T04:24:16.718Z,84.4
2018-09-02T04:25:16.995Z,84.3
2018-09-02T04:26:16.271Z,84.4
2018-09-02T04:27:16.542Z,84.9
2018-09-02T04:28:16.809Z,84.5
2018-09-02T04:29:17.092Z,84.5
2018-09-02T04:30:16.373Z,84.0
2018-09-02T04:31:16.435Z,84.4
2018-09-02T04:32:16.716Z,84.2
2018-09-02T04:33:16.987Z,84.7
2018-09-02T04:34:17.261Z,84.9
2018-09-02T04:35:16.524Z,84.9
2018-09-02T04:36:16.796Z,85.0
2018-09-02T04:37:17.078Z,85.0
2018-09-02T04:38:16.345Z,85.1
2018-09-02T04:39:16.875Z,85.4
2018-09-02T04:40:17.171Z,85.5
2018-09-02T04:41:17.202Z,85.8
2018-09-02T04:42:16.474Z,85.7
2018-09-02T04:43:16.747Z,85.8
2018-09-02T04:44:17.020Z,85.8
2018-09-02T04:45:16.502Z,86.2
2018-09-02T04:46:16.805Z,86.6
2018-09-02T04:47:17.080Z,86.8
2018-09-02T04:48:16.356Z,86.8
2018-09-02T04:49:16.637Z,87.0
2018-09-02T04:50:16.912Z,87.5
2018-09-02T04:51:16.976Z,87.5
2018-09-02T04:52:17.255Z,87.8
2018-09-02T04:53:16.529Z,87.7
2018-09-02T04:54:17.024Z,88.1
2018-09-02T04:55:16.310Z,88.2
2018-09-02T04:56:16.579Z,88.7
2018-09-02T04:57:16.847Z,88.8
2018-09-02T04:58:17.120Z,88.5
2018-09-02T04:59:16.384Z,88.2
2018-09-02T05:00:16.750Z,88.9
2018-09-02T05:01:16.702Z,89.1
2018-09-02T05:02:16.961Z,89.3
2018-09-02T05:03:17.229Z,89.6
2018-09-02T05:04:16.494Z,89.8
2018-09-02T05:05:16.763Z,89.7
2018-09-02T05:06:17.048Z,90.1
2018-09-02T05:07:16.321Z,90.2
2018-09-02T05:08:16.582Z,90.2
2018-09-02T05:09:16.845Z,90.5
2018-09-02T05:10:17.113Z,90.6
2018-09-02T05:11:17.441Z,90.6
2018-09-02T05:12:16.708Z,91.3
2018-09-02T05:13:16.980Z,91.4
2018-09-02T05:14:17.492Z,91.6
2018-09-02T05:15:16.862Z,91.8
2018-09-02T05:16:17.137Z,92.3
2018-09-02T05:17:16.416Z,92.5
2018-09-02T05:18:16.684Z,92.8
2018-09-02T05:19:16.957Z,92.7
2018-09-02T05:20:17.242Z,92.8
2018-09-02T05:21:16.279Z,93.0
2018-09-02T05:22:16.578Z,93.3
2018-09-02T05:23:16.837Z,93.5
2018-09-02T05:24:17.114Z,93.8
2018-09-02T05:25:16.387Z,93.4
2018-09-02T05:26:16.656Z,93.6
2018-09-02T05:27:16.922Z,93.6
2018-09-02T05:28:17.186Z,93.7
2018-09-02T05:29:16.495Z,93.8
2018-09-02T05:30:16.778Z,94.0
2018-09-02T05:31:16.811Z,94.2
2018-09-02T05:32:17.088Z,94.4
2018-09-02T05:33:16.361Z,94.3
2018-09-02T05:34:16.633Z,94.4
2018-09-02T05:35:16.922Z,94.5
2018-09-02T05:36:17.234Z,94.4
2018-09-02T05:37:16.506Z,94.4
2018-09-02T05:38:16.771Z,94.3
2018-09-02T05:39:17.036Z,94.4
2018-09-02T05:40:16.311Z,94.4
2018-09-02T05:41:16.351Z,94.5
2018-09-02T05:42:16.614Z,94.5
2018-09-02T05:43:16.889Z,94.6
2018-09-02T05:44:17.166Z,94.7
2018-09-02T05:45:16.446Z,94.7
2018-09-02T05:46:16.724Z,94.8
2018-09-02T05:47:17.002Z,94.8
2018-09-02T05:48:16.274Z,94.9
2018-09-02T05:49:16.552Z,95.0
2018-09-02T05:50:16.841Z,94.8
2018-09-02T05:51:16.901Z,94.9
2018-09-02T05:52:17.180Z,95.1
2018-09-02T05:53:16.459Z,95.0
2018-09-02T05:54:16.724Z,95.0
2018-09-02T05:55:16.993Z,95.0
2018-09-02T05:56:16.253Z,95.0
2018-09-02T05:57:16.528Z,95.0
2018-09-02T05:58:16.773Z,95.0
2018-09-02T05:59:17.045Z,95.2
2018-09-02T06:00:16.326Z,95.2
2018-09-02T06:01:16.371Z,95.2
2018-09-02T06:02:16.637Z,95.1
2018-09-02T06:03:16.900Z,94.8
2018-09-02T06:04:17.164Z,94.8
2018-09-02T06:05:16.436Z,94.9
2018-09-02T06:06:16.701Z,95.0
2018-09-02T06:07:16.970Z,95.1
2018-09-02T06:08:17.239Z,95.2
2018-09-02T06:09:16.505Z,95.2
2018-09-02T06:10:16.780Z,95.0
2018-09-02T06:11:16.835Z,94.4
2018-09-02T06:12:17.107Z,94.3
2018-09-02T06:13:16.374Z,94.3
2018-09-02T06:14:16.642Z,94.4
2018-09-02T06:15:17.292Z,94.3
2018-09-02T06:16:16.561Z,94.5
2018-09-02T06:17:16.925Z,94.6
2018-09-02T06:18:16.262Z,94.4
2018-09-02T06:19:16.530Z,94.6
2018-09-02T06:20:16.819Z,94.6
2018-09-02T06:21:16.843Z,94.5
2018-09-02T06:22:17.122Z,94.5
2018-09-02T06:23:16.385Z,94.5
2018-09-02T06:24:16.656Z,94.4
2018-09-02T06:25:16.939Z,94.1
2018-09-02T06:26:17.219Z,94.1
2018-09-02T06:27:16.537Z,93.8
2018-09-02T06:28:17.071Z,94.1
2018-09-02T06:29:16.337Z,93.9
2018-09-02T06:30:17.036Z,93.8
2018-09-02T06:31:16.660Z,93.7
2018-09-02T06:32:16.929Z,93.8
2018-09-02T06:33:17.212Z,93.8
2018-09-02T06:34:16.492Z,93.8
2018-09-02T06:35:16.760Z,93.8
2018-09-02T06:36:17.163Z,93.8
2018-09-02T06:37:16.450Z,93.6
2018-09-02T06:38:16.717Z,93.2
2018-09-02T06:39:16.989Z,93.4
2018-09-02T06:40:16.274Z,93.3
2018-09-02T06:41:16.347Z,93.2
2018-09-02T06:42:16.619Z,92.9
2018-09-02T06:43:16.896Z,92.8
2018-09-02T06:44:17.285Z,93.1
2018-09-02T06:45:16.565Z,93.3
2018-09-02T06:46:16.844Z,93.5
2018-09-02T06:47:17.111Z,93.5
2018-09-02T06:48:16.386Z,93.7
2018-09-02T06:49:16.658Z,93.7
2018-09-02T06:50:16.926Z,93.7
2018-09-02T06:51:16.971Z,93.6
2018-09-02T06:52:17.239Z,93.7
2018-09-02T06:53:16.509Z,93.5
2018-09-02T06:54:16.779Z,93.7
2018-09-02T06:55:17.052Z,93.3
2018-09-02T06:56:16.332Z,93.6
2018-09-02T06:57:16.608Z,93.6
2018-09-02T06:58:16.870Z,93.6
2018-09-02T06:59:17.149Z,93.2
2018-09-02T07:00:16.425Z,93.3
2018-09-02T07:01:16.483Z,93.5
2018-09-02T07:02:16.762Z,93.1
2018-09-02T07:03:17.021Z,93.3
2018-09-02T07:04:16.298Z,93.3
2018-09-02T07:05:16.576Z,93.7
2018-09-02T07:06:16.854Z,93.8
2018-09-02T07:07:17.196Z,93.8
2018-09-02T07:08:16.478Z,93.9
2018-09-02T07:09:16.741Z,93.6
2018-09-02T07:10:17.020Z,93.3
2018-09-02T07:11:17.065Z,92.8
2018-09-02T07:12:16.336Z,93.1
2018-09-02T07:13:16.611Z,93.2
2018-09-02T07:14:16.990Z,93.5
2018-09-02T07:15:16.275Z,93.6
2018-09-02T07:16:16.548Z,93.5
2018-09-02T07:17:16.806Z,93.6
2018-09-02T07:18:17.081Z,93.6
2018-09-02T07:19:16.355Z,93.7
2018-09-02T07:20:16.779Z,93.7
2018-09-02T07:21:16.660Z,93.0
2018-09-02T07:22:16.936Z,92.7
2018-09-02T07:23:17.203Z,92.8
2018-09-02T07:24:16.478Z,92.8
2018-09-02T07:25:16.748Z,92.8
2018-09-02T07:26:17.029Z,93.1
2018-09-02T07:27:16.308Z,93.1
2018-09-02T07:28:16.585Z,92.9
2018-09-02T07:29:16.850Z,93.1
2018-09-02T07:30:17.154Z,93.3
2018-09-02T07:31:17.222Z,93.2
2018-09-02T07:32:16.505Z,93.0
2018-09-02T07:33:16.773Z,92.7
2018-09-02T07:34:17.043Z,93.0
2018-09-02T07:35:16.330Z,93.0
2018-09-02T07:36:16.602Z,93.2
2018-09-02T07:37:16.881Z,93.0
2018-09-02T07:38:17.158Z,93.0
2018-09-02T07:39:16.441Z,92.5
2018-09-02T07:40:16.723Z,92.5
2018-09-02T07:41:16.745Z,92.7
2018-09-02T07:42:17.009Z,92.9
2018-09-02T07:43:16.278Z,93.2
2018-09-02T07:44:16.775Z,93.3
2018-09-02T07:45:17.129Z,93.2
2018-09-02T07:46:16.404Z,93.3
2018-09-02T07:47:16.674Z,93.0
2018-09-02T07:48:16.951Z,93.3
2018-09-02T07:49:17.217Z,93.2
2018-09-02T07:50:16.496Z,93.1
2018-09-02T07:51:16.535Z,92.5
2018-09-02T07:52:16.804Z,92.5
2018-09-02T07:53:17.086Z,92.7
2018-09-02T07:54:16.373Z,92.6
2018-09-02T07:55:16.639Z,92.6
2018-09-02T07:56:16.915Z,92.5
2018-09-02T07:57:17.189Z,92.4
2018-09-02T07:58:16.470Z,92.5
2018-09-02T07:59:16.744Z,92.1
2018-09-02T08:00:17.037Z,92.2
2018-09-02T08:01:17.059Z,92.1
2018-09-02T08:02:16.341Z,91.6
2018-09-02T08:03:16.606Z,90.9
2018-09-02T08:04:16.878Z,90.7
2018-09-02T08:05:17.153Z,90.5
2018-09-02T08:06:16.420Z,91.0
2018-09-02T08:07:16.689Z,90.9
2018-09-02T08:08:16.960Z,90.5
2018-09-02T08:09:17.283Z,90.6
2018-09-02T08:10:16.558Z,90.7
2018-09-02T08:11:16.613Z,90.0
2018-09-02T08:12:17.018Z,89.8
2018-09-02T08:13:16.310Z,90.0
2018-09-02T08:14:16.606Z,90.2
2018-09-02T08:15:16.884Z,89.8
2018-09-02T08:16:17.150Z,89.9
2018-09-02T08:17:16.425Z,90.5
2018-09-02T08:18:16.684Z,90.2
2018-09-02T08:19:16.957Z,90.7
2018-09-02T08:20:17.227Z,90.4
2018-09-02T08:21:16.288Z,89.7
2018-09-02T08:22:16.557Z,90.3
2018-09-02T08:23:16.832Z,89.7
2018-09-02T08:24:17.096Z,90.6
2018-09-02T08:25:16.357Z,90.8
2018-09-02T08:26:16.634Z,90.8
2018-09-02T08:27:16.898Z,91.0
2018-09-02T08:28:17.182Z,91.0
2018-09-02T08:29:16.452Z,91.2
2018-09-02T08:30:16.731Z,90.7
2018-09-02T08:31:16.777Z,90.8
2018-09-02T08:32:17.050Z,90.8
2018-09-02T08:33:16.313Z,90.8
2018-09-02T08:34:16.579Z,90.3
2018-09-02T08:35:16.849Z,90.7
2018-09-02T08:36:17.118Z,90.6
2018-09-02T08:37:16.387Z,90.5
2018-09-02T08:38:16.662Z,90.9
2018-09-02T08:39:17.285Z,90.8
2018-09-02T08:40:16.639Z,90.9
2018-09-02T08:41:16.688Z,90.2
2018-09-02T08:42:16.954Z,90.7
2018-09-02T08:43:17.229Z,90.6
2018-09-02T08:44:16.678Z,90.2
2018-09-02T08:45:17.006Z,91.0
2018-09-02T08:46:16.269Z,90.5
2018-09-02T08:47:16.544Z,90.2
2018-09-02T08:48:16.808Z,90.5
2018-09-02T08:49:17.280Z,90.2
2018-09-02T08:50:16.601Z,90.1
2018-09-02T08:51:16.608Z,90.0
2018-09-02T08:52:16.879Z,89.7
2018-09-02T08:53:17.151Z,90.3
2018-09-02T08:54:16.419Z,89.5
2018-09-02T08:55:16.710Z,90.2
2018-09-02T08:56:16.978Z,90.1
2018-09-02T08:57:17.249Z,90.7
2018-09-02T08:58:16.534Z,90.1
2018-09-02T08:59:16.804Z,90.2
2018-09-02T09:00:17.106Z,90.1
2018-09-02T09:01:17.129Z,90.1
2018-09-02T09:02:16.397Z,90.1
2018-09-02T09:03:16.667Z,90.5
2018-09-02T09:04:16.946Z,89.6
2018-09-02T09:05:17.230Z,89.8
2018-09-02T09:06:16.503Z,89.9
2018-09-02T09:07:16.774Z,89.2
2018-09-02T09:08:17.484Z,89.2
2018-09-02T09:09:17.720Z,89.6
2018-09-02T09:10:17.128Z,90.0
2018-09-02T09:11:17.198Z,89.3
2018-09-02T09:12:16.464Z,89.2
2018-09-02T09:13:16.734Z,88.3
2018-09-02T09:14:17.000Z,88.4
2018-09-02T09:15:16.277Z,88.5
2018-09-02T09:16:16.610Z,88.8
2018-09-02T09:17:16.949Z,87.9
2018-09-02T09:18:17.215Z,89.0
2018-09-02T09:19:16.474Z,88.1
2018-09-02T09:20:16.774Z,88.8
2018-09-02T09:21:16.795Z,88.5
2018-09-02T09:22:17.061Z,87.5
2018-09-02T09:23:16.332Z,87.9
2018-09-02T09:24:16.597Z,88.2
2018-09-02T09:25:17.556Z,88.3
2018-09-02T09:26:16.855Z,87.9
2018-09-02T09:27:17.126Z,87.7
2018-09-02T09:28:16.390Z,87.3
2018-09-02T09:29:16.658Z,87.7
2018-09-02T09:30:16.936Z,87.6
2018-09-02T09:31:16.973Z,87.1
2018-09-02T09:32:17.293Z,87.1
2018-09-02T09:33:16.564Z,87.2
2018-09-02T09:34:16.915Z,87.5
2018-09-02T09:35:17.225Z,86.4
2018-09-02T09:36:16.484Z,86.6
2018-09-02T09:37:16.757Z,86.9
2018-09-02T09:38:17.028Z,86.6
2018-09-02T09:39:16.297Z,87.3
2018-09-02T09:40:16.572Z,86.5
2018-09-02T09:41:16.630Z,86.0
2018-09-02T09:42:16.920Z,85.2
2018-09-02T09:43:17.194Z,85.2
2018-09-02T09:44:16.493Z,85.4
2018-09-02T09:45:16.789Z,85.8
2018-09-02T09:46:17.043Z,85.1
2018-09-02T09:47:16.307Z,85.1
2018-09-02T09:48:16.587Z,83.8
2018-09-02T09:49:16.851Z,84.1
2018-09-02T09:50:17.207Z,83.9
2018-09-02T09:51:17.185Z,83.9
2018-09-02T09:52:16.445Z,84.4
2018-09-02T09:53:16.721Z,84.0
2018-09-02T09:54:16.996Z,83.8
2018-09-02T09:55:16.281Z,83.0
2018-09-02T09:56:16.562Z,83.8
2018-09-02T09:57:16.832Z,84.0
2018-09-02T09:58:17.107Z,83.5
2018-09-02T09:59:16.388Z,82.7
2018-09-02T10:00:16.687Z,83.5
2018-09-02T10:01:16.719Z,83.7
2018-09-02T10:02:16.989Z,83.7
2018-09-02T10:03:17.262Z,83.8
2018-09-02T10:04:16.533Z,83.9
2018-09-02T10:05:16.802Z,83.6
2018-09-02T10:06:17.072Z,83.9
2018-09-02T10:07:16.345Z,83.0
2018-09-02T10:08:16.619Z,83.5
2018-09-02T10:09:16.886Z,83.3
2018-09-02T10:10:17.207Z,84.0
2018-09-02T10:11:17.220Z,84.2
2018-09-02T10:12:16.501Z,84.4
2018-09-02T10:13:16.768Z,84.7
2018-09-02T10:14:17.036Z,84.2
2018-09-02T10:15:16.323Z,84.3
2018-09-02T10:16:16.593Z,84.3
2018-09-02T10:17:16.983Z,84.2
2018-09-02T10:18:16.598Z,84.5
2018-09-02T10:19:16.964Z,83.8
2018-09-02T10:20:17.249Z,83.8
2018-09-02T10:21:16.289Z,83.6
2018-09-02T10:22:16.573Z,83.8
2018-09-02T10:23:16.861Z,83.8
2018-09-02T10:24:17.152Z,83.3
2018-09-02T10:25:16.443Z,83.8
2018-09-02T10:26:16.826Z,83.0
2018-09-02T10:27:17.128Z,83.0
2018-09-02T10:28:16.411Z,83.3
2018-09-02T10:29:16.676Z,83.7
2018-09-02T10:30:16.950Z,83.0
2018-09-02T10:31:16.993Z,83.3
2018-09-02T10:32:16.261Z,84.0
2018-09-02T10:33:16.602Z,83.4
2018-09-02T10:34:16.879Z,83.8
2018-09-02T10:35:17.154Z,83.2
2018-09-02T10:36:16.433Z,83.3
2018-09-02T10:37:16.716Z,83.0
2018-09-02T10:38:16.983Z,83.3
2018-09-02T10:39:17.250Z,83.3
2018-09-02T10:40:16.541Z,83.5
2018-09-02T10:41:17.092Z,84.1
2018-09-02T10:42:16.463Z,83.5
2018-09-02T10:43:16.731Z,82.9
2018-09-02T10:44:17.006Z,83.6
2018-09-02T10:45:16.284Z,82.8
2018-09-02T10:46:16.558Z,82.7
2018-09-02T10:47:16.832Z,81.9
2018-09-02T10:48:17.093Z,82.7
2018-09-02T10:49:16.350Z,83.4
2018-09-02T10:50:16.639Z,83.0
2018-09-02T10:51:16.694Z,83.8
2018-09-02T10:52:16.958Z,83.0
2018-09-02T10:53:17.224Z,82.8
2018-09-02T10:54:16.497Z,82.8
2018-09-02T10:55:16.785Z,82.1
2018-09-02T10:56:17.047Z,82.2
2018-09-02T10:57:16.292Z,81.7
2018-09-02T10:58:16.561Z,81.9
2018-09-02T10:59:16.826Z,81.7
2018-09-02T11:00:17.100Z,82.2
2018-09-02T11:01:17.158Z,81.6
2018-09-02T11:02:16.424Z,81.7
2018-09-02T11:03:16.689Z,82.2
2018-09-02T11:04:16.960Z,81.4
2018-09-02T11:05:17.227Z,81.5
2018-09-02T11:06:16.500Z,82.1
2018-09-02T11:07:16.759Z,82.2
2018-09-02T11:08:17.026Z,83.2
2018-09-02T11:09:16.298Z,82.7
2018-09-02T11:10:16.590Z,82.4
2018-09-02T11:11:16.628Z,82.3
2018-09-02T11:12:16.903Z,82.4
2018-09-02T11:13:17.554Z,81.8
2018-09-02T11:14:16.829Z,81.3
2018-09-02T11:15:17.096Z,81.7
2018-09-02T11:16:16.360Z,81.1
2018-09-02T11:17:16.648Z,81.8
2018-09-02T11:18:16.915Z,81.1
2018-09-02T11:19:17.194Z,81.4
2018-09-02T11:20:16.518Z,81.3
2018-09-02T11:21:16.517Z,81.3
2018-09-02T11:22:16.781Z,81.8
2018-09-02T11:23:17.044Z,82.2
2018-09-02T11:24:16.323Z,81.5
2018-09-02T11:25:16.602Z,80.7
2018-09-02T11:26:16.856Z,79.8
2018-09-02T11:27:17.129Z,80.2
2018-09-02T11:28:16.391Z,80.7
2018-09-02T11:29:16.656Z,80.9
2018-09-02T11:30:16.931Z,80.9
2018-09-02T11:31:16.934Z,80.2
2018-09-02T11:32:17.248Z,80.2
2018-09-02T11:33:16.511Z,80.0
2018-09-02T11:34:16.785Z,80.2
2018-09-02T11:35:17.056Z,80.5
2018-09-02T11:36:16.322Z,80.4
2018-09-02T11:37:16.572Z,81.0
2018-09-02T11:38:16.834Z,80.5
2018-09-02T11:39:17.109Z,80.2
2018-09-02T11:40:16.423Z,80.4
2018-09-02T11:41:16.443Z,80.4
2018-09-02T11:42:16.710Z,80.5
2018-09-02T11:43:16.984Z,79.7
2018-09-02T11:44:17.257Z,79.8
2018-09-02T11:45:16.540Z,79.2
2018-09-02T11:46:16.806Z,79.6
2018-09-02T11:47:17.077Z,79.2
2018-09-02T11:48:16.341Z,79.4
2018-09-02T11:49:16.611Z,79.4
2018-09-02T11:50:16.904Z,79.6
2018-09-02T11:51:16.910Z,79.4
2018-09-02T11:52:17.185Z,79.8
2018-09-02T11:53:16.454Z,80.1
2018-09-02T11:54:16.728Z,79.9
2018-09-02T11:55:17.004Z,79.8
2018-09-02T11:56:16.279Z,80.4
2018-09-02T11:57:16.552Z,79.2
2018-09-02T11:58:16.811Z,79.2
2018-09-02T11:59:17.081Z,79.5
2018-09-02T12:00:16.346Z,79.5
2018-09-02T12:01:16.446Z,79.8
2018-09-02T12:02:16.708Z,79.5
2018-09-02T12:03:16.965Z,79.7
2018-09-02T12:04:17.237Z,79.3
2018-09-02T12:05:16.511Z,79.7
2018-09-02T12:06:16.772Z,79.0
2018-09-02T12:07:17.049Z,79.4
2018-09-02T12:08:16.318Z,79.3
2018-09-02T12:09:16.598Z,79.7
2018-09-02T12:10:16.871Z,79.7
2018-09-02T12:11:16.910Z,79.7
2018-09-02T12:12:17.175Z,79.2
2018-09-02T12:13:16.453Z,79.7
2018-09-02T12:14:16.722Z,78.6
2018-09-02T12:15:16.997Z,78.7
2018-09-02T12:16:16.260Z,78.5
2018-09-02T12:17:16.540Z,78.9
2018-09-02T12:18:16.806Z,78.6
2018-09-02T12:19:17.071Z,78.1
2018-09-02T12:20:16.346Z,79.0
2018-09-02T12:21:16.395Z,79.3
2018-09-02T12:22:16.663Z,79.4
2018-09-02T12:23:16.932Z,79.6
2018-09-02T12:24:17.193Z,79.1
2018-09-02T12:25:16.462Z,79.7
2018-09-02T12:26:16.743Z,79.8
2018-09-02T12:27:17.003Z,79.7
2018-09-02T12:28:16.290Z,78.6
2018-09-02T12:29:16.566Z,80.0
2018-09-02T12:30:16.847Z,79.8
2018-09-02T12:31:16.891Z,79.8
2018-09-02T12:32:17.174Z,79.2
2018-09-02T12:33:16.476Z,79.2
2018-09-02T12:34:16.763Z,79.9
2018-09-02T12:35:17.040Z,80.5
2018-09-02T12:36:16.311Z,80.0
2018-09-02T12:37:16.632Z,79.5
2018-09-02T12:38:16.909Z,79.5
2018-09-02T12:39:17.226Z,79.8
2018-09-02T12:40:16.507Z,79.7
2018-09-02T12:41:16.554Z,78.8
2018-09-02T12:42:17.101Z,78.8
2018-09-02T12:43:16.467Z,79.2
2018-09-02T12:44:16.741Z,79.0
2018-09-02T12:45:17.030Z,79.5
2018-09-02T12:46:16.295Z,79.7
2018-09-02T12:47:16.569Z,79.7
2018-09-02T12:48:17.121Z,80.0
2018-09-02T12:49:16.437Z,79.9
2018-09-02T12:50:16.780Z,79.9
2018-09-02T12:51:17.079Z,79.7
2018-09-02T12:52:16.360Z,79.8
2018-09-02T12:53:16.628Z,80.1
2018-09-02T12:54:17.061Z,80.3
2018-09-02T12:55:16.491Z,80.0
2018-09-02T12:56:16.774Z,80.6
2018-09-02T12:57:17.065Z,80.4
2018-09-02T12:58:16.334Z,79.7
2018-09-02T12:59:16.598Z,80.8
2018-09-02T13:00:16.875Z,79.9
2018-09-02T13:01:17.030Z,79.2
2018-09-02T13:02:16.435Z,79.5
2018-09-02T13:03:16.705Z,79.6
2018-09-02T13:04:16.971Z,79.1
2018-09-02T13:05:17.235Z,79.5
2018-09-02T13:06:16.495Z,79.1
2018-09-02T13:07:16.765Z,79.5
2018-09-02T13:08:17.056Z,79.6
2018-09-02T13:09:16.414Z,79.5
2018-09-02T13:10:16.696Z,79.6
2018-09-02T13:11:16.740Z,79.3
2018-09-02T13:12:17.010Z,80.2
2018-09-02T13:13:16.279Z,80.7
2018-09-02T13:14:16.543Z,80.2
2018-09-02T13:15:17.008Z,79.8
2018-09-02T13:16:16.303Z,80.2
2018-09-02T13:17:16.582Z,79.7
2018-09-02T13:18:16.845Z,79.6